createdAt,value
2023-05-03T00:00:23.950Z,32.80
2023-05-03T00:03:13.756Z,32.90
2023-05-03T00:06:11.474Z,32.90
2023-05-03T00:09:01.320Z,32.90
2023-05-03T00:11:49.834Z,32.90
2023-05-03T00:14:38.304Z,32.90
2023-05-03T00:17:27.309Z,32.90
2023-05-03T00:20:17.656Z,32.90
2023-05-03T00:23:06.503Z,32.90
2023-05-03T00:25:56.773Z,32.90
2023-05-03T00:28:45.220Z,32.90
2023-05-03T00:31:33.681Z,32.90
2023-05-03T00:34:22.249Z,32.90
2023-05-03T00:37:10.647Z,32.90
2023-05-03T00:39:59.088Z,32.90
2023-05-03T00:42:48.862Z,33.00
2023-05-03T00:45:37.360Z,33.00
2023-05-03T00:48:25.880Z,33.00
2023-05-03T00:51:15.610Z,33.00
2023-05-03T00:54:04.113Z,33.10
2023-05-03T00:56:52.835Z,33.10
2023-05-03T00:59:43.651Z,33.10
2023-05-03T01:02:32.748Z,33.20
2023-05-03T01:05:23.055Z,33.20
2023-05-03T01:08:16.742Z,33.20
2023-05-03T01:11:12.658Z,33.30
2023-05-03T01:14:09.129Z,33.30
2023-05-03T01:17:06.878Z,33.40
2023-05-03T01:19:59.075Z,33.40
2023-05-03T01:22:51.900Z,33.50
2023-05-03T01:25:41.818Z,33.60
2023-05-03T01:28:30.433Z,33.70
2023-05-03T01:31:24.802Z,33.70
2023-05-03T01:34:23.455Z,33.80
2023-05-03T01:37:15.031Z,33.80
2023-05-03T01:40:05.868Z,33.80
2023-05-03T01:42:57.983Z,33.90
2023-05-03T01:45:46.874Z,33.90
2023-05-03T01:48:35.471Z,33.90
2023-05-03T01:51:23.969Z,33.90
2023-05-03T01:54:12.614Z,34.00
2023-05-03T01:57:01.812Z,34.00
2023-05-03T01:59:51.796Z,34.00
2023-05-03T02:02:40.445Z,34.10
2023-05-03T02:05:29.286Z,34.10
2023-05-03T02:08:18.062Z,34.10
2023-05-03T02:11:06.917Z,34.10
2023-05-03T02:13:55.455Z,34.20
2023-05-03T02:16:45.524Z,34.20
2023-05-03T02:19:34.047Z,34.30
2023-05-03T02:22:23.472Z,34.30
2023-05-03T02:25:11.953Z,34.40
2023-05-03T02:28:00.475Z,34.50
2023-05-03T02:30:49.253Z,34.50
2023-05-03T02:33:39.326Z,34.50
2023-05-03T02:36:27.883Z,34.60
2023-05-03T02:39:17.368Z,34.60
2023-05-03T02:42:05.882Z,34.60
2023-05-03T02:44:54.261Z,34.60
2023-05-03T02:47:42.775Z,34.60
2023-05-03T02:50:32.664Z,34.60
2023-05-03T02:53:21.229Z,34.60
2023-05-03T02:56:10.130Z,34.70
2023-05-03T02:58:58.744Z,34.70
2023-05-03T03:01:47.926Z,34.70
2023-05-03T03:04:36.491Z,34.70
2023-05-03T03:07:26.545Z,34.70
2023-05-03T03:10:15.437Z,34.70
2023-05-03T03:13:04.184Z,34.70
2023-05-03T03:15:52.855Z,34.70
2023-05-03T03:18:41.655Z,34.70
2023-05-03T03:21:30.208Z,34.80
2023-05-03T03:24:20.006Z,34.80
2023-05-03T03:27:08.447Z,34.90
2023-05-03T03:29:56.880Z,34.90
2023-05-03T03:32:45.404Z,35.00
2023-05-03T03:35:34.673Z,34.90
2023-05-03T03:38:23.116Z,34.90
2023-05-03T03:41:13.160Z,34.90
2023-05-03T03:44:01.579Z,34.90
2023-05-03T03:46:50.127Z,34.90
2023-05-03T03:49:38.604Z,34.90
2023-05-03T03:52:27.219Z,34.90
2023-05-03T03:55:17.008Z,34.90
2023-05-03T03:58:07.963Z,34.80
2023-05-03T04:00:57.254Z,34.80
2023-05-03T04:03:47.863Z,34.80
2023-05-03T04:06:36.654Z,34.80
2023-05-03T04:09:25.237Z,34.80
2023-05-03T04:12:13.924Z,34.80
2023-05-03T04:15:04.318Z,34.90
2023-05-03T04:17:52.964Z,34.90
2023-05-03T04:20:41.536Z,34.90
2023-05-03T04:23:30.110Z,34.90
2023-05-03T04:26:31.108Z,34.90
2023-05-03T04:29:20.750Z,34.90
2023-05-03T04:32:11.360Z,34.90
2023-05-03T04:35:00.129Z,34.90
2023-05-03T04:37:48.737Z,34.90
2023-05-03T04:40:37.759Z,34.90
2023-05-03T04:43:26.326Z,34.90
2023-05-03T04:46:14.963Z,34.90
2023-05-03T04:49:04.908Z,34.90
2023-05-03T04:51:54.439Z,34.80
2023-05-03T04:54:43.717Z,34.90
2023-05-03T04:57:32.478Z,34.80
2023-05-03T05:00:22.742Z,34.80
2023-05-03T05:03:12.057Z,34.80
2023-05-03T05:06:02.209Z,34.80
2023-05-03T05:08:52.707Z,34.80
2023-05-03T05:11:41.370Z,34.80
2023-05-03T05:14:31.897Z,34.70
2023-05-03T05:17:21.610Z,34.80
2023-05-03T05:20:12.657Z,34.70
2023-05-03T05:23:02.507Z,34.70
2023-05-03T05:25:51.437Z,34.90
2023-05-03T05:28:39.893Z,35.00
2023-05-03T05:31:28.522Z,34.90
2023-05-03T05:34:17.200Z,34.90
2023-05-03T05:37:06.217Z,34.80
2023-05-03T05:39:56.706Z,34.70
2023-05-03T05:42:46.348Z,34.70
2023-05-03T05:45:34.897Z,34.60
2023-05-03T05:48:23.699Z,34.50
2023-05-03T05:51:12.473Z,34.50
2023-05-03T05:54:00.931Z,34.40
2023-05-03T05:56:50.922Z,34.40
2023-05-03T05:59:39.511Z,34.90
2023-05-03T06:02:28.133Z,35.00
2023-05-03T06:05:16.790Z,34.90
2023-05-03T06:08:05.575Z,34.80
2023-05-03T06:10:54.331Z,34.60
2023-05-03T06:13:44.169Z,34.40
2023-05-03T06:16:33.002Z,34.40
2023-05-03T06:19:21.855Z,34.20
2023-05-03T06:22:10.491Z,34.10
2023-05-03T06:24:59.422Z,34.00
2023-05-03T06:27:48.045Z,33.90
2023-05-03T06:30:37.970Z,33.80
2023-05-03T06:33:26.631Z,33.60
2023-05-03T06:36:15.233Z,33.50
2023-05-03T06:39:04.636Z,33.30
2023-05-03T06:41:53.112Z,33.00
2023-05-03T06:44:41.529Z,32.80
2023-05-03T06:47:31.412Z,32.60
2023-05-03T06:50:20.226Z,32.30
2023-05-03T06:53:08.666Z,32.00
2023-05-03T06:55:57.481Z,31.40
2023-05-03T06:58:45.880Z,30.70
2023-05-03T07:01:34.392Z,30.00
2023-05-03T07:04:24.328Z,29.30
2023-05-03T07:07:12.842Z,28.80
2023-05-03T07:10:01.622Z,28.30
2023-05-03T07:12:50.436Z,28.10
2023-05-03T07:15:38.951Z,27.90
2023-05-03T07:18:27.603Z,27.70
2023-05-03T07:21:17.505Z,27.60
2023-05-03T07:24:07.453Z,27.60
2023-05-03T07:26:55.931Z,27.60
2023-05-03T07:29:44.552Z,27.50
2023-05-03T07:32:33.918Z,27.50
2023-05-03T07:35:23.311Z,27.40
2023-05-03T07:38:13.169Z,27.30
2023-05-03T07:41:01.773Z,27.20
2023-05-03T07:43:50.363Z,27.30
2023-05-03T07:46:38.805Z,27.20
2023-05-03T07:49:27.348Z,27.20
2023-05-03T07:52:15.805Z,27.10
2023-05-03T07:55:06.912Z,27.20
2023-05-03T07:57:58.935Z,27.20
2023-05-03T08:00:47.404Z,27.20
2023-05-03T08:03:36.105Z,27.30
2023-05-03T08:06:24.911Z,27.20
2023-05-03T08:09:14.153Z,27.10
2023-05-03T08:12:04.370Z,27.10
2023-05-03T08:14:53.786Z,27.00
2023-05-03T08:17:43.316Z,26.70
2023-05-03T08:20:32.107Z,26.70
2023-05-03T08:23:21.914Z,26.50
2023-05-03T08:26:11.093Z,26.40
2023-05-03T08:29:00.977Z,26.20
2023-05-03T08:31:50.089Z,26.00
2023-05-03T08:34:38.718Z,25.90
2023-05-03T08:37:27.187Z,25.70
2023-05-03T08:40:16.830Z,25.50
2023-05-03T08:43:09.957Z,25.40
2023-05-03T08:45:59.873Z,25.10
2023-05-03T08:48:50.269Z,25.00
2023-05-03T08:51:42.215Z,24.70
2023-05-03T08:54:31.162Z,24.50
2023-05-03T08:57:20.611Z,24.40
2023-05-03T09:00:10.904Z,24.10
2023-05-03T09:03:01.251Z,23.90
2023-05-03T09:05:49.897Z,23.80
2023-05-03T09:08:44.452Z,23.70
2023-05-03T09:11:33.958Z,23.50
2023-05-03T09:14:22.399Z,23.40
2023-05-03T09:17:16.950Z,23.30
2023-05-03T09:20:10.049Z,23.20
2023-05-03T09:22:58.651Z,23.20
2023-05-03T09:25:49.698Z,22.90
2023-05-03T09:28:43.667Z,22.70
2023-05-03T09:31:33.548Z,22.50
2023-05-03T09:34:25.235Z,22.50
2023-05-03T09:37:15.359Z,22.20
2023-05-03T09:40:10.337Z,22.00
2023-05-03T09:43:09.504Z,21.60
2023-05-03T09:46:10.387Z,21.10
2023-05-03T09:48:58.911Z,20.80
2023-05-03T09:51:47.592Z,20.70
2023-05-03T09:54:37.488Z,20.50
2023-05-03T09:57:27.205Z,20.40
2023-05-03T10:00:17.422Z,20.80
2023-05-03T10:03:09.933Z,20.50
2023-05-03T10:06:01.582Z,20.30
2023-05-03T10:08:53.660Z,20.30
2023-05-03T10:11:48.897Z,20.20
2023-05-03T10:14:37.668Z,20.10
2023-05-03T10:17:43.406Z,20.10
2023-05-03T10:20:41.332Z,19.90
2023-05-03T10:23:29.763Z,19.80
2023-05-03T10:26:18.287Z,19.70
2023-05-03T10:29:36.120Z,19.60
2023-05-03T10:32:39.896Z,19.40
2023-05-03T10:35:29.964Z,19.10
2023-05-03T10:38:21.135Z,19.10
2023-05-03T10:41:09.605Z,19.20
2023-05-03T10:43:58.145Z,19.10
2023-05-03T10:46:48.047Z,19.10
2023-05-03T10:49:36.720Z,19.00
2023-05-03T10:52:47.173Z,19.00
2023-05-03T10:55:36.029Z,18.70
2023-05-03T10:58:24.597Z,18.80
2023-05-03T11:01:15.373Z,18.90
2023-05-03T11:04:09.487Z,18.80
2023-05-03T11:06:59.074Z,18.70
2023-05-03T11:09:47.969Z,18.60
2023-05-03T11:12:36.593Z,18.70
2023-05-03T11:15:25.078Z,18.60
2023-05-03T11:18:13.679Z,18.60
2023-05-03T11:21:04.101Z,18.60
2023-05-03T11:23:52.713Z,18.60
2023-05-03T11:26:41.530Z,18.50
2023-05-03T11:29:30.116Z,18.40
2023-05-03T11:32:19.998Z,18.40
2023-05-03T11:35:09.399Z,18.40
2023-05-03T11:37:59.342Z,18.30
2023-05-03T11:40:47.771Z,18.10
2023-05-03T11:43:42.539Z,18.40
2023-05-03T11:46:35.066Z,18.20
2023-05-03T11:49:25.185Z,18.00
2023-05-03T11:52:13.778Z,18.20
2023-05-03T11:55:05.353Z,18.20
2023-05-03T11:57:54.010Z,18.20
2023-05-03T12:00:46.824Z,18.00
2023-05-03T12:03:36.407Z,18.20
2023-05-03T12:06:26.976Z,18.00
2023-05-03T12:09:18.105Z,18.10
2023-05-03T12:12:10.566Z,18.00
2023-05-03T12:15:03.806Z,18.00
2023-05-03T12:18:00.099Z,18.20
2023-05-03T12:21:30.304Z,18.10
2023-05-03T12:24:06.729Z,18.00
2023-05-03T12:26:57.284Z,18.10
2023-05-03T12:29:47.840Z,18.20
2023-05-03T12:32:38.891Z,18.10
2023-05-03T12:35:28.587Z,18.00
2023-05-03T12:38:18.072Z,17.80
2023-05-03T12:41:09.196Z,17.70
2023-05-03T12:44:00.519Z,17.90
2023-05-03T12:46:52.918Z,17.90
2023-05-03T12:49:45.842Z,17.90
2023-05-03T12:52:37.915Z,18.00
2023-05-03T12:55:29.109Z,18.00
2023-05-03T13:01:37.866Z,18.10
2023-05-03T13:04:55.824Z,18.00
2023-05-03T13:07:32.801Z,18.20
2023-05-03T13:10:29.806Z,18.10
2023-05-03T13:13:19.097Z,18.20
2023-05-03T13:16:08.177Z,18.20
2023-05-03T13:18:56.758Z,18.30
2023-05-03T13:21:48.647Z,18.40
2023-05-03T13:24:37.577Z,18.40
2023-05-03T13:27:26.681Z,18.30
2023-05-03T13:30:15.698Z,18.40
2023-05-03T13:33:04.267Z,18.50
2023-05-03T13:35:52.829Z,18.40
2023-05-03T13:38:43.076Z,18.50
2023-05-03T13:41:31.622Z,18.50
2023-05-03T13:44:21.117Z,18.50
2023-05-03T13:47:09.564Z,18.70
2023-05-03T13:49:58.387Z,18.70
2023-05-03T13:52:46.807Z,18.70
2023-05-03T13:55:36.572Z,18.90
2023-05-03T13:58:25.169Z,19.00
2023-05-03T14:01:13.968Z,19.10
2023-05-03T14:04:02.528Z,19.20
2023-05-03T14:06:50.967Z,19.20
2023-05-03T14:09:39.729Z,19.30
2023-05-03T14:12:29.759Z,19.20
2023-05-03T14:15:18.984Z,19.20
2023-05-03T14:18:07.934Z,19.30
2023-05-03T14:20:57.196Z,19.30
2023-05-03T14:23:46.188Z,19.50
2023-05-03T14:26:35.093Z,19.60
2023-05-03T14:29:25.076Z,19.80
2023-05-03T14:32:13.615Z,19.90
2023-05-03T14:35:02.124Z,20.20
2023-05-03T14:37:50.517Z,20.30
2023-05-03T14:40:39.006Z,20.40
2023-05-03T14:43:28.443Z,20.50
2023-05-03T14:46:18.289Z,20.50
2023-05-03T14:49:07.180Z,20.70
2023-05-03T14:51:55.798Z,20.80
2023-05-03T14:54:44.416Z,21.00
2023-05-03T14:57:33.860Z,21.00
2023-05-03T15:00:23.388Z,21.10
2023-05-03T15:03:13.799Z,21.10
2023-05-03T15:06:02.372Z,21.10
2023-05-03T15:08:51.442Z,21.30
2023-05-03T15:11:39.931Z,21.40
2023-05-03T15:14:28.424Z,21.60
2023-05-03T15:17:17.017Z,21.70
2023-05-03T15:20:10.437Z,21.80
2023-05-03T15:22:58.874Z,21.80
2023-05-03T15:25:47.268Z,21.90
2023-05-03T15:28:35.729Z,21.90
2023-05-03T15:31:24.320Z,21.90
2023-05-03T15:34:12.917Z,21.90
2023-05-03T15:37:02.793Z,22.10
2023-05-03T15:39:51.469Z,22.20
2023-05-03T15:42:40.116Z,22.30
2023-05-03T15:45:28.567Z,22.40
2023-05-03T15:48:17.152Z,22.50
2023-05-03T15:51:05.859Z,22.60
2023-05-03T15:53:55.706Z,22.60
2023-05-03T15:56:44.433Z,22.70
2023-05-03T15:59:32.834Z,22.90
2023-05-03T16:02:21.552Z,22.90
2023-05-03T16:05:11.238Z,22.90
2023-05-03T16:08:00.495Z,22.90
2023-05-03T16:10:50.334Z,22.90
2023-05-03T16:13:38.788Z,22.90
2023-05-03T16:16:27.487Z,23.00
2023-05-03T16:19:15.935Z,23.00
2023-05-03T16:22:04.688Z,23.10
2023-05-03T16:24:53.752Z,23.10
2023-05-03T16:27:43.620Z,23.40
2023-05-03T16:30:33.006Z,24.20
2023-05-03T16:33:21.446Z,24.50
2023-05-03T16:36:11.009Z,24.70
2023-05-03T16:38:59.471Z,24.90
2023-05-03T16:41:47.903Z,25.10
2023-05-03T16:44:37.797Z,25.30
2023-05-03T16:47:27.418Z,25.50
2023-05-03T16:50:18.065Z,25.80
2023-05-03T16:53:06.549Z,25.90
2023-05-03T16:55:55.577Z,26.10
2023-05-03T16:58:43.971Z,26.00
2023-05-03T17:01:33.859Z,26.20
2023-05-03T17:04:22.685Z,26.40
2023-05-03T17:07:11.118Z,26.30
2023-05-03T17:09:59.772Z,26.10
2023-05-03T17:12:48.685Z,26.00
2023-05-03T17:15:38.564Z,25.90
2023-05-03T17:18:28.734Z,25.80
2023-05-03T17:21:19.277Z,26.20
2023-05-03T17:24:08.690Z,27.20
2023-05-03T17:26:57.188Z,27.30
2023-05-03T17:29:45.671Z,27.20
2023-05-03T17:32:35.126Z,27.10
2023-05-03T17:35:25.204Z,27.20
2023-05-03T17:38:13.807Z,27.30
2023-05-03T17:41:06.105Z,27.20
2023-05-03T17:43:55.340Z,27.20
2023-05-03T17:46:44.745Z,27.10
2023-05-03T17:49:34.130Z,27.20
2023-05-03T17:52:24.101Z,27.20
2023-05-03T17:55:12.483Z,27.20
2023-05-03T17:58:00.958Z,27.20
2023-05-03T18:00:49.529Z,27.40
2023-05-03T18:03:39.007Z,27.40
2023-05-03T18:06:28.121Z,27.40
2023-05-03T18:09:18.271Z,27.40
2023-05-03T18:12:07.334Z,27.50
2023-05-03T18:14:59.630Z,27.50
2023-05-03T18:17:48.433Z,27.40
2023-05-03T18:20:37.213Z,27.40
2023-05-03T18:23:26.924Z,27.40
2023-05-03T18:26:17.303Z,27.50
2023-05-03T18:29:05.892Z,27.50
2023-05-03T18:31:55.005Z,27.50
2023-05-03T18:34:43.664Z,27.60
2023-05-03T18:37:32.566Z,27.70
2023-05-03T18:40:21.626Z,27.80
2023-05-03T18:43:11.830Z,27.90
2023-05-03T18:46:02.624Z,28.00
2023-05-03T18:48:51.376Z,28.10
2023-05-03T18:51:40.191Z,28.20
2023-05-03T18:54:29.046Z,28.30
2023-05-03T18:57:17.617Z,28.40
2023-05-03T19:00:10.006Z,28.50
2023-05-03T19:02:59.441Z,28.60
2023-05-03T19:05:48.678Z,28.70
2023-05-03T19:08:37.267Z,28.70
2023-05-03T19:11:27.015Z,28.90
2023-05-03T19:14:15.699Z,28.90
2023-05-03T19:17:08.389Z,29.00
2023-05-03T19:19:57.897Z,29.20
2023-05-03T19:22:46.536Z,29.20
2023-05-03T19:25:35.063Z,29.30
2023-05-03T19:28:23.854Z,29.40
2023-05-03T19:31:12.663Z,29.50
2023-05-03T19:34:03.072Z,29.60
2023-05-03T19:36:51.849Z,29.60
2023-05-03T19:39:40.579Z,29.70
2023-05-03T19:42:29.092Z,29.70
2023-05-03T19:45:18.442Z,29.80
2023-05-03T19:48:07.827Z,29.90
2023-05-03T19:50:58.966Z,30.00
2023-05-03T19:53:49.190Z,30.10
2023-05-03T19:56:38.128Z,30.20
2023-05-03T19:59:29.609Z,30.20
2023-05-03T20:02:18.707Z,30.30
2023-05-03T20:05:08.186Z,30.40
2023-05-03T20:07:59.295Z,30.50
2023-05-03T20:10:49.834Z,30.60
2023-05-03T20:13:38.591Z,30.70
2023-05-03T20:16:32.830Z,30.80
2023-05-03T20:19:23.417Z,30.90
2023-05-03T20:22:12.418Z,31.00
2023-05-03T20:25:02.327Z,31.20
2023-05-03T20:27:50.781Z,31.30
2023-05-03T20:30:39.312Z,31.40
2023-05-03T20:33:27.847Z,31.60
2023-05-03T20:36:16.410Z,31.70
2023-05-03T20:39:05.469Z,31.80
2023-05-03T20:41:55.202Z,32.00
2023-05-03T20:44:43.800Z,32.10
2023-05-03T20:47:32.228Z,32.30
2023-05-03T20:50:20.985Z,32.50
2023-05-03T20:53:09.383Z,32.60
2023-05-03T20:56:00.085Z,32.70
2023-05-03T20:58:49.964Z,32.80
2023-05-03T21:01:41.205Z,32.90
2023-05-03T21:04:29.687Z,33.10
2023-05-03T21:07:18.104Z,33.20
2023-05-03T21:10:07.779Z,33.30
2023-05-03T21:12:56.504Z,33.40
2023-05-03T21:15:46.328Z,33.50
2023-05-03T21:18:34.723Z,33.50
2023-05-03T21:21:23.152Z,33.50
2023-05-03T21:24:11.675Z,33.50
2023-05-03T21:27:00.263Z,33.50
2023-05-03T21:29:48.681Z,33.50
2023-05-03T21:32:39.255Z,33.60
2023-05-03T21:35:27.727Z,33.70
2023-05-03T21:38:17.833Z,33.70
2023-05-03T21:41:07.414Z,33.80
2023-05-03T21:43:56.021Z,33.60
2023-05-03T21:46:44.689Z,33.40
2023-05-03T21:49:34.543Z,33.20
2023-05-03T21:52:23.260Z,33.00
2023-05-03T21:55:12.622Z,32.90
2023-05-03T21:58:01.149Z,32.70
2023-05-03T22:00:49.607Z,32.60
2023-05-03T22:03:38.288Z,32.50
2023-05-03T22:06:28.148Z,32.40
2023-05-03T22:09:16.520Z,32.40
2023-05-03T22:12:19.170Z,32.30
2023-05-03T22:15:12.462Z,32.30
2023-05-03T22:18:01.177Z,32.30
2023-05-03T22:20:49.319Z,32.20
2023-05-03T22:23:39.406Z,32.20
2023-05-03T22:26:27.738Z,32.20
2023-05-03T22:29:16.820Z,32.20
2023-05-03T22:32:05.541Z,32.10
2023-05-03T22:34:54.000Z,32.10
2023-05-03T22:37:42.825Z,32.00
2023-05-03T22:40:32.972Z,32.00
2023-05-03T22:43:21.492Z,32.00
2023-05-03T22:46:09.956Z,32.00
2023-05-03T22:48:58.448Z,32.00
2023-05-03T22:51:46.891Z,32.00
2023-05-03T22:54:35.296Z,32.00
2023-05-03T22:57:25.323Z,32.00
2023-05-03T23:00:15.068Z,32.00
2023-05-03T23:03:03.623Z,32.10
2023-05-03T23:05:54.025Z,32.10
2023-05-03T23:08:42.472Z,32.10
2023-05-03T23:11:31.385Z,32.20
2023-05-03T23:14:21.313Z,32.20
2023-05-03T23:17:10.236Z,32.30
2023-05-03T23:19:58.658Z,32.30
2023-05-03T23:22:47.538Z,32.40
2023-05-03T23:25:35.986Z,32.40
2023-05-03T23:28:24.463Z,32.40
2023-05-03T23:31:14.572Z,32.40
2023-05-03T23:34:05.090Z,32.50
2023-05-03T23:36:53.581Z,32.50
2023-05-03T23:39:45.009Z,32.60
2023-05-03T23:42:33.543Z,32.60
2023-05-03T23:45:22.019Z,32.70
2023-05-03T23:48:12.012Z,32.80
2023-05-03T23:51:00.495Z,32.80
2023-05-03T23:53:48.971Z,32.80
2023-05-03T23:56:37.281Z,32.90
2023-05-03T23:59:25.738Z,32.90
